sensor_id;sensor_type;location;lat;lon;timestamp;pressure;altitude;pressure_sealevel;temperature;humidity
78625;BME280;67944;0.000;0.000;2023-07-20T00:00:25;100472.13;;;28.42;33.75
78625;BME280;67944;0.000;0.000;2023-07-20T00:02:51;100475.03;;;28.41;33.81
78625;BME280;67944;0.000;0.000;2023-07-20T00:05:17;100483.06;;;28.41;33.60
78625;BME280;67944;0.000;0.000;2023-07-20T00:07:44;100475.25;;;28.39;33.63
78625;BME280;67944;0.000;0.000;2023-07-20T00:10:09;100470.72;;;28.40;33.80
78625;BME280;67944;0.000;0.000;2023-07-20T00:12:35;100473.63;;;28.38;33.70
78625;BME280;67944;0.000;0.000;2023-07-20T00:15:00;100473.84;;;28.37;33.73
78625;BME280;67944;0.000;0.000;2023-07-20T00:17:26;100481.09;;;28.36;33.85
78625;BME280;67944;0.000;0.000;2023-07-20T00:19:51;100470.63;;;28.35;33.70
78625;BME280;67944;0.000;0.000;2023-07-20T00:22:17;100483.19;;;28.34;33.70
78625;BME280;67944;0.000;0.000;2023-07-20T00:24:42;100477.03;;;28.34;33.85
78625;BME280;67944;0.000;0.000;2023-07-20T00:27:07;100480.75;;;28.33;33.45
78625;BME280;67944;0.000;0.000;2023-07-20T00:29:34;100476.44;;;28.31;33.63
78625;BME280;67944;0.000;0.000;2023-07-20T00:32:00;100488.19;;;28.30;33.95
78625;BME280;67944;0.000;0.000;2023-07-20T00:34:26;100486.56;;;28.29;33.58
78625;BME280;67944;0.000;0.000;2023-07-20T00:36:51;100482.25;;;28.28;33.91
78625;BME280;67944;0.000;0.000;2023-07-20T00:39:16;100478.97;;;28.26;33.77
78625;BME280;67944;0.000;0.000;2023-07-20T00:41:42;100485.16;;;28.27;33.73
78625;BME280;67944;0.000;0.000;2023-07-20T00:44:07;100484.56;;;28.25;34.09
78625;BME280;67944;0.000;0.000;2023-07-20T00:46:33;100482.94;;;28.24;33.77
78625;BME280;67944;0.000;0.000;2023-07-20T00:48:59;100482.94;;;28.24;33.70
78625;BME280;67944;0.000;0.000;2023-07-20T00:51:26;100485.84;;;28.22;34.07
78625;BME280;67944;0.000;0.000;2023-07-20T00:53:52;100492.25;;;28.21;33.77
78625;BME280;67944;0.000;0.000;2023-07-20T00:56:19;100490.59;;;28.20;33.76
78625;BME280;67944;0.000;0.000;2023-07-20T00:58:45;100492.47;;;28.20;33.85
78625;BME280;67944;0.000;0.000;2023-07-20T01:01:10;100493.47;;;28.19;33.90
78625;BME280;67944;0.000;0.000;2023-07-20T01:03:36;100500.69;;;28.18;33.97
78625;BME280;67944;0.000;0.000;2023-07-20T01:06:10;100489.41;;;28.16;34.00
78625;BME280;67944;0.000;0.000;2023-07-20T01:08:46;100498.72;;;28.14;33.83
78625;BME280;67944;0.000;0.000;2023-07-20T01:11:19;100490.34;;;28.10;33.51
78625;BME280;67944;0.000;0.000;2023-07-20T01:13:48;100485.44;;;28.07;33.75
78625;BME280;67944;0.000;0.000;2023-07-20T01:16:14;100485.06;;;28.04;33.73
78625;BME280;67944;0.000;0.000;2023-07-20T01:18:39;100489.25;;;27.99;33.51
78625;BME280;67944;0.000;0.000;2023-07-20T01:21:13;100491.56;;;27.96;33.33
78625;BME280;67944;0.000;0.000;2023-07-20T01:30:11;100480.25;;;27.82;33.47
78625;BME280;67944;0.000;0.000;2023-07-20T01:32:42;100483.59;;;27.78;33.50
78625;BME280;67944;0.000;0.000;2023-07-20T01:35:11;100485.69;;;27.76;32.97
78625;BME280;67944;0.000;0.000;2023-07-20T01:37:41;100487.16;;;27.72;33.14
78625;BME280;67944;0.000;0.000;2023-07-20T01:40:09;100485.78;;;27.69;33.09
78625;BME280;67944;0.000;0.000;2023-07-20T01:42:35;100491.81;;;27.64;33.50
78625;BME280;67944;0.000;0.000;2023-07-20T01:45:00;100494.94;;;27.61;33.43
78625;BME280;67944;0.000;0.000;2023-07-20T01:47:25;100498.66;;;27.60;32.88
78625;BME280;67944;0.000;0.000;2023-07-20T01:49:51;100492.91;;;27.57;33.50
78625;BME280;67944;0.000;0.000;2023-07-20T01:52:16;100495.22;;;27.53;33.05
78625;BME280;67944;0.000;0.000;2023-07-20T01:54:42;100491.94;;;27.51;33.51
78625;BME280;67944;0.000;0.000;2023-07-20T01:57:07;100485.19;;;27.49;33.19
78625;BME280;67944;0.000;0.000;2023-07-20T01:59:33;100481.13;;;27.46;33.16
78625;BME280;67944;0.000;0.000;2023-07-20T02:01:58;100485.88;;;27.44;33.14
78625;BME280;67944;0.000;0.000;2023-07-20T02:04:24;100493.31;;;27.42;33.10
78625;BME280;67944;0.000;0.000;2023-07-20T02:06:49;100484.09;;;27.38;33.40
78625;BME280;67944;0.000;0.000;2023-07-20T02:09:15;100487.81;;;27.37;32.97
78625;BME280;67944;0.000;0.000;2023-07-20T02:11:40;100488.25;;;27.34;32.94
78625;BME280;67944;0.000;0.000;2023-07-20T02:14:05;100499.38;;;27.31;33.04
78625;BME280;67944;0.000;0.000;2023-07-20T02:16:31;100489.16;;;27.28;33.19
78625;BME280;67944;0.000;0.000;2023-07-20T02:18:57;100493.91;;;27.26;33.31
78625;BME280;67944;0.000;0.000;2023-07-20T02:21:23;100497.03;;;27.23;32.84
78625;BME280;67944;0.000;0.000;2023-07-20T02:23:49;100487.59;;;27.20;33.44
78625;BME280;67944;0.000;0.000;2023-07-20T02:26:14;100483.50;;;27.18;33.16
78625;BME280;67944;0.000;0.000;2023-07-20T02:28:40;100487.22;;;27.17;32.98
78625;BME280;67944;0.000;0.000;2023-07-20T02:31:06;100490.34;;;27.14;33.44
78625;BME280;67944;0.000;0.000;2023-07-20T02:33:32;100482.53;;;27.12;32.62
78625;BME280;67944;0.000;0.000;2023-07-20T02:35:57;100491.81;;;27.10;33.46
78625;BME280;67944;0.000;0.000;2023-07-20T02:38:23;100493.88;;;27.08;33.37
78625;BME280;67944;0.000;0.000;2023-07-20T02:40:48;100489.84;;;27.05;33.14
78625;BME280;67944;0.000;0.000;2023-07-20T02:43:13;100491.09;;;27.03;33.25
78625;BME280;67944;0.000;0.000;2023-07-20T02:45:43;100498.50;;;27.01;33.18
78625;BME280;67944;0.000;0.000;2023-07-20T02:48:09;100496.88;;;27.00;33.30
78625;BME280;67944;0.000;0.000;2023-07-20T02:50:34;100494.44;;;26.98;33.44
78625;BME280;67944;0.000;0.000;2023-07-20T02:53:00;100494.03;;;26.94;33.32
78625;BME280;67944;0.000;0.000;2023-07-20T02:55:26;100494.44;;;26.91;32.87
78625;BME280;67944;0.000;0.000;2023-07-20T02:57:51;100491.19;;;26.89;33.42
78625;BME280;67944;0.000;0.000;2023-07-20T03:00:17;100502.09;;;26.88;33.06
78625;BME280;67944;0.000;0.000;2023-07-20T03:02:45;100504.16;;;26.86;33.40
78625;BME280;67944;0.000;0.000;2023-07-20T03:05:13;100500.91;;;26.84;33.76
78625;BME280;67944;0.000;0.000;2023-07-20T03:07:39;100503.22;;;26.80;33.52
78625;BME280;67944;0.000;0.000;2023-07-20T03:10:05;100498.91;;;26.79;33.15
78625;BME280;67944;0.000;0.000;2023-07-20T03:12:34;100497.50;;;26.77;33.41
78625;BME280;67944;0.000;0.000;2023-07-20T03:15:00;100496.06;;;26.74;33.26
78625;BME280;67944;0.000;0.000;2023-07-20T03:17:25;100490.94;;;26.73;33.53
78625;BME280;67944;0.000;0.000;2023-07-20T03:19:50;100489.31;;;26.72;33.26
78625;BME280;67944;0.000;0.000;2023-07-20T03:22:16;100495.91;;;26.69;33.77
78625;BME280;67944;0.000;0.000;2023-07-20T03:24:41;100499.81;;;26.67;33.51
78625;BME280;67944;0.000;0.000;2023-07-20T03:27:07;100500.88;;;26.66;33.58
78625;BME280;67944;0.000;0.000;2023-07-20T03:29:32;100502.16;;;26.63;33.38
78625;BME280;67944;0.000;0.000;2023-07-20T03:31:58;100495.38;;;26.60;33.25
78625;BME280;67944;0.000;0.000;2023-07-20T03:34:24;100499.31;;;26.58;33.95
78625;BME280;67944;0.000;0.000;2023-07-20T03:36:50;100512.06;;;26.56;33.83
78625;BME280;67944;0.000;0.000;2023-07-20T03:39:15;100507.75;;;26.55;33.30
78625;BME280;67944;0.000;0.000;2023-07-20T03:41:41;100504.47;;;26.53;33.46
78625;BME280;67944;0.000;0.000;2023-07-20T03:44:06;100518.06;;;26.51;33.89
78625;BME280;67944;0.000;0.000;2023-07-20T03:46:32;100511.28;;;26.49;33.31
78625;BME280;67944;0.000;0.000;2023-07-20T03:48:59;100518.69;;;26.47;33.56
78625;BME280;67944;0.000;0.000;2023-07-20T03:51:26;100515.44;;;26.45;33.47
78625;BME280;67944;0.000;0.000;2023-07-20T03:53:51;100508.66;;;26.42;33.37
78625;BME280;67944;0.000;0.000;2023-07-20T03:56:17;100514.69;;;26.38;33.74
78625;BME280;67944;0.000;0.000;2023-07-20T03:58:42;100523.53;;;26.32;33.96
78625;BME280;67944;0.000;0.000;2023-07-20T04:01:08;100518.63;;;26.22;34.07
78625;BME280;67944;0.000;0.000;2023-07-20T04:03:35;100513.59;;;26.14;33.57
78625;BME280;67944;0.000;0.000;2023-07-20T04:06:01;100515.69;;;26.05;34.10
78625;BME280;67944;0.000;0.000;2023-07-20T04:08:26;100511.66;;;25.96;33.41
78625;BME280;67944;0.000;0.000;2023-07-20T04:10:52;100519.69;;;25.89;33.80
78625;BME280;67944;0.000;0.000;2023-07-20T04:13:17;100520.75;;;25.82;34.38
78625;BME280;67944;0.000;0.000;2023-07-20T04:15:43;100527.97;;;25.75;34.30
78625;BME280;67944;0.000;0.000;2023-07-20T04:18:08;100524.50;;;25.68;34.67
78625;BME280;67944;0.000;0.000;2023-07-20T04:20:34;100529.03;;;25.60;34.88
78625;BME280;67944;0.000;0.000;2023-07-20T04:22:59;100526.16;;;25.55;34.53
78625;BME280;67944;0.000;0.000;2023-07-20T04:25:25;100520.06;;;25.48;34.32
78625;BME280;67944;0.000;0.000;2023-07-20T04:27:51;100528.47;;;25.45;34.63
78625;BME280;67944;0.000;0.000;2023-07-20T04:30:17;100524.38;;;25.43;35.54
78625;BME280;67944;0.000;0.000;2023-07-20T04:32:45;100527.47;;;25.40;34.86
78625;BME280;67944;0.000;0.000;2023-07-20T04:35:16;100540.78;;;25.40;35.41
78625;BME280;67944;0.000;0.000;2023-07-20T04:37:42;100535.06;;;25.36;34.94
78625;BME280;67944;0.000;0.000;2023-07-20T04:40:12;100532.84;;;25.33;35.17
78625;BME280;67944;0.000;0.000;2023-07-20T04:42:38;100533.66;;;25.27;35.17
78625;BME280;67944;0.000;0.000;2023-07-20T04:45:04;100537.75;;;25.23;35.81
78625;BME280;67944;0.000;0.000;2023-07-20T04:47:29;100537.34;;;25.19;35.86
78625;BME280;67944;0.000;0.000;2023-07-20T04:49:55;100541.66;;;25.14;35.80
78625;BME280;67944;0.000;0.000;2023-07-20T04:52:20;100537.19;;;25.08;36.34
78625;BME280;67944;0.000;0.000;2023-07-20T04:54:46;100542.31;;;25.03;36.25
78625;BME280;67944;0.000;0.000;2023-07-20T04:57:12;100539.03;;;25.01;36.38
78625;BME280;67944;0.000;0.000;2023-07-20T04:59:38;100536.38;;;25.01;36.99
78625;BME280;67944;0.000;0.000;2023-07-20T05:02:03;100539.44;;;25.04;36.46
78625;BME280;67944;0.000;0.000;2023-07-20T05:04:28;100535.34;;;25.08;36.73
78625;BME280;67944;0.000;0.000;2023-07-20T05:06:54;100539.22;;;25.12;36.31
78625;BME280;67944;0.000;0.000;2023-07-20T05:09:19;100536.94;;;25.16;36.68
78625;BME280;67944;0.000;0.000;2023-07-20T05:11:45;100530.19;;;25.20;36.23
78625;BME280;67944;0.000;0.000;2023-07-20T05:14:12;100531.19;;;25.25;36.81
78625;BME280;67944;0.000;0.000;2023-07-20T05:16:37;100531.00;;;25.27;36.38
78625;BME280;67944;0.000;0.000;2023-07-20T05:19:03;100535.09;;;25.30;36.34
78625;BME280;67944;0.000;0.000;2023-07-20T05:21:28;100525.25;;;25.30;36.26
78625;BME280;67944;0.000;0.000;2023-07-20T05:23:54;100533.84;;;25.32;36.04
78625;BME280;67944;0.000;0.000;2023-07-20T05:26:19;100532.84;;;25.33;35.96
78625;BME280;67944;0.000;0.000;2023-07-20T05:28:44;100532.22;;;25.31;36.15
78625;BME280;67944;0.000;0.000;2023-07-20T05:31:10;100534.06;;;25.31;36.67
78625;BME280;67944;0.000;0.000;2023-07-20T05:33:35;100529.75;;;25.30;36.97
78625;BME280;67944;0.000;0.000;2023-07-20T05:36:01;100534.69;;;25.33;36.68
78625;BME280;67944;0.000;0.000;2023-07-20T05:38:26;100539.78;;;25.34;36.80
78625;BME280;67944;0.000;0.000;2023-07-20T05:40:52;100543.50;;;25.33;36.32
78625;BME280;67944;0.000;0.000;2023-07-20T05:43:17;100542.28;;;25.29;37.20
78625;BME280;67944;0.000;0.000;2023-07-20T05:45:44;100534.28;;;25.29;36.74
78625;BME280;67944;0.000;0.000;2023-07-20T05:48:10;100542.88;;;25.31;36.85
78625;BME280;67944;0.000;0.000;2023-07-20T05:50:37;100544.28;;;25.34;36.58
78625;BME280;67944;0.000;0.000;2023-07-20T05:53:03;100540.38;;;25.36;36.64
78625;BME280;67944;0.000;0.000;2023-07-20T05:55:28;100550.63;;;25.39;36.74
78625;BME280;67944;0.000;0.000;2023-07-20T05:57:54;100546.72;;;25.42;37.12
78625;BME280;67944;0.000;0.000;2023-07-20T06:00:21;100547.56;;;25.42;36.77
78625;BME280;67944;0.000;0.000;2023-07-20T06:02:52;100549.19;;;25.43;36.42
78625;BME280;67944;0.000;0.000;2023-07-20T06:05:18;100551.44;;;25.46;36.87
78625;BME280;67944;0.000;0.000;2023-07-20T06:07:45;100551.22;;;25.48;36.58
78625;BME280;67944;0.000;0.000;2023-07-20T06:10:10;100548.34;;;25.49;37.03
78625;BME280;67944;0.000;0.000;2023-07-20T06:12:36;100546.09;;;25.53;37.00
78625;BME280;67944;0.000;0.000;2023-07-20T06:15:03;100544.25;;;25.53;36.74
78625;BME280;67944;0.000;0.000;2023-07-20T06:17:29;100554.47;;;25.56;36.11
78625;BME280;67944;0.000;0.000;2023-07-20T06:19:54;100553.22;;;25.59;36.87
78625;BME280;67944;0.000;0.000;2023-07-20T06:22:20;100558.16;;;25.62;36.61
78625;BME280;67944;0.000;0.000;2023-07-20T06:24:45;100549.16;;;25.63;36.84
78625;BME280;67944;0.000;0.000;2023-07-20T06:27:10;100555.91;;;25.66;36.33
78625;BME280;67944;0.000;0.000;2023-07-20T06:29:37;100555.50;;;25.69;36.32
78625;BME280;67944;0.000;0.000;2023-07-20T06:32:03;100557.75;;;25.72;36.64
78625;BME280;67944;0.000;0.000;2023-07-20T06:34:28;100554.66;;;25.75;36.63
78625;BME280;67944;0.000;0.000;2023-07-20T06:36:55;100557.69;;;25.78;36.57
78625;BME280;67944;0.000;0.000;2023-07-20T06:39:20;100547.84;;;25.79;36.62
78625;BME280;67944;0.000;0.000;2023-07-20T06:41:47;100554.81;;;25.80;36.51
78625;BME280;67944;0.000;0.000;2023-07-20T06:44:13;100552.97;;;25.80;36.55
78625;BME280;67944;0.000;0.000;2023-07-20T06:46:38;100555.00;;;25.85;36.18
78625;BME280;67944;0.000;0.000;2023-07-20T06:49:06;100556.22;;;25.89;36.23
78625;BME280;67944;0.000;0.000;2023-07-20T06:51:33;100562.78;;;25.93;36.11
78625;BME280;67944;0.000;0.000;2023-07-20T06:53:58;100563.38;;;25.95;36.64
78625;BME280;67944;0.000;0.000;2023-07-20T06:56:24;100573.63;;;25.98;36.25
78625;BME280;67944;0.000;0.000;2023-07-20T06:58:49;100568.88;;;26.00;35.97
78625;BME280;67944;0.000;0.000;2023-07-20T07:01:14;100574.41;;;26.05;36.11
78625;BME280;67944;0.000;0.000;2023-07-20T07:03:40;100566.78;;;26.09;36.84
78625;BME280;67944;0.000;0.000;2023-07-20T07:06:05;100555.47;;;26.13;36.75
78625;BME280;67944;0.000;0.000;2023-07-20T07:08:31;100561.00;;;26.18;36.52
78625;BME280;67944;0.000;0.000;2023-07-20T07:10:57;100558.47;;;26.23;35.75
78625;BME280;67944;0.000;0.000;2023-07-20T07:13:23;100563.19;;;26.28;36.21
78625;BME280;67944;0.000;0.000;2023-07-20T07:15:50;100559.69;;;26.34;35.73
78625;BME280;67944;0.000;0.000;2023-07-20T07:18:15;100570.75;;;26.38;35.79
78625;BME280;67944;0.000;0.000;2023-07-20T07:20:40;100568.47;;;26.41;35.92
78625;BME280;67944;0.000;0.000;2023-07-20T07:23:06;100567.19;;;26.44;36.10
78625;BME280;67944;0.000;0.000;2023-07-20T07:25:31;100565.97;;;26.46;36.17
78625;BME280;67944;0.000;0.000;2023-07-20T07:27:57;100562.84;;;26.49;35.24
78625;BME280;67944;0.000;0.000;2023-07-20T07:30:22;100565.31;;;26.51;35.76
78625;BME280;67944;0.000;0.000;2023-07-20T07:32:49;100560.56;;;26.53;35.47
78625;BME280;67944;0.000;0.000;2023-07-20T07:35:14;100571.88;;;26.55;35.98
78625;BME280;67944;0.000;0.000;2023-07-20T07:37:40;100568.16;;;26.56;35.81
78625;BME280;67944;0.000;0.000;2023-07-20T07:40:06;100567.94;;;26.57;35.44
78625;BME280;67944;0.000;0.000;2023-07-20T07:42:32;100569.38;;;26.60;35.81
78625;BME280;67944;0.000;0.000;2023-07-20T07:44:57;100573.22;;;26.64;35.93
78625;BME280;67944;0.000;0.000;2023-07-20T07:47:23;100576.50;;;26.66;35.26
78625;BME280;67944;0.000;0.000;2023-07-20T07:49:48;100570.94;;;26.68;35.45
78625;BME280;67944;0.000;0.000;2023-07-20T07:52:14;100577.09;;;26.68;35.81
78625;BME280;67944;0.000;0.000;2023-07-20T07:54:40;100576.66;;;26.71;35.94
78625;BME280;67944;0.000;0.000;2023-07-20T07:57:05;100580.16;;;26.72;35.62
78625;BME280;67944;0.000;0.000;2023-07-20T07:59:31;100577.25;;;26.73;35.06
78625;BME280;67944;0.000;0.000;2023-07-20T08:02:02;100576.22;;;26.74;35.66
78625;BME280;67944;0.000;0.000;2023-07-20T08:04:29;100575.19;;;26.75;35.32
78625;BME280;67944;0.000;0.000;2023-07-20T08:06:54;100571.50;;;26.76;35.25
78625;BME280;67944;0.000;0.000;2023-07-20T08:09:19;100567.78;;;26.77;35.73
78625;BME280;67944;0.000;0.000;2023-07-20T08:11:45;100565.94;;;26.78;35.05
78625;BME280;67944;0.000;0.000;2023-07-20T08:14:10;100577.44;;;26.78;35.03
78625;BME280;67944;0.000;0.000;2023-07-20T08:16:36;100571.28;;;26.78;34.95
78625;BME280;67944;0.000;0.000;2023-07-20T08:19:01;100573.72;;;26.79;35.19
78625;BME280;67944;0.000;0.000;2023-07-20T08:21:27;100573.50;;;26.81;35.60
78625;BME280;67944;0.000;0.000;2023-07-20T08:23:53;100571.44;;;26.83;35.00
78625;BME280;67944;0.000;0.000;2023-07-20T08:26:18;100561.31;;;26.85;35.03
78625;BME280;67944;0.000;0.000;2023-07-20T08:28:47;100558.91;;;26.83;35.35
78625;BME280;67944;0.000;0.000;2023-07-20T08:31:13;100568.56;;;26.84;35.32
78625;BME280;67944;0.000;0.000;2023-07-20T08:33:39;100562.97;;;26.86;34.75
78625;BME280;67944;0.000;0.000;2023-07-20T08:36:04;100561.94;;;26.87;34.99
78625;BME280;67944;0.000;0.000;2023-07-20T08:38:31;100559.84;;;26.89;34.85
78625;BME280;67944;0.000;0.000;2023-07-20T08:40:57;100566.00;;;26.89;35.21
78625;BME280;67944;0.000;0.000;2023-07-20T08:43:25;100560.66;;;26.89;35.32
78625;BME280;67944;0.000;0.000;2023-07-20T08:45:54;100568.47;;;26.91;35.26
78625;BME280;67944;0.000;0.000;2023-07-20T08:48:21;100562.91;;;26.92;35.18
78625;BME280;67944;0.000;0.000;2023-07-20T08:50:51;100564.53;;;26.93;34.44
78625;BME280;67944;0.000;0.000;2023-07-20T08:53:18;100562.31;;;26.90;34.85
78625;BME280;67944;0.000;0.000;2023-07-20T08:55:44;100556.97;;;26.90;34.59
78625;BME280;67944;0.000;0.000;2023-07-20T08:58:12;100570.09;;;26.92;34.53
78625;BME280;67944;0.000;0.000;2023-07-20T09:00:41;100566.00;;;26.96;34.32
78625;BME280;67944;0.000;0.000;2023-07-20T09:03:06;100554.06;;;26.99;34.16
78625;BME280;67944;0.000;0.000;2023-07-20T09:05:32;100554.88;;;26.99;34.14
78625;BME280;67944;0.000;0.000;2023-07-20T09:07:58;100560.00;;;27.01;33.87
78625;BME280;67944;0.000;0.000;2023-07-20T09:10:24;100564.09;;;27.03;34.44
78625;BME280;67944;0.000;0.000;2023-07-20T09:12:50;100556.06;;;27.03;33.86
78625;BME280;67944;0.000;0.000;2023-07-20T09:15:15;100555.38;;;27.08;34.00
78625;BME280;67944;0.000;0.000;2023-07-20T09:17:48;100556.59;;;27.12;34.14
78625;BME280;67944;0.000;0.000;2023-07-20T09:20:16;100554.28;;;27.15;33.71
78625;BME280;67944;0.000;0.000;2023-07-20T09:22:43;100555.47;;;27.19;33.67
78625;BME280;67944;0.000;0.000;2023-07-20T09:25:13;100552.97;;;27.24;33.47
78625;BME280;67944;0.000;0.000;2023-07-20T09:27:41;100555.78;;;27.29;33.93
78625;BME280;67944;0.000;0.000;2023-07-20T09:30:08;100542.78;;;27.33;33.34
78625;BME280;67944;0.000;0.000;2023-07-20T09:32:48;100540.25;;;27.38;33.47
78625;BME280;67944;0.000;0.000;2023-07-20T09:35:15;100542.50;;;27.41;33.18
78625;BME280;67944;0.000;0.000;2023-07-20T09:37:51;100545.53;;;27.45;32.99
78625;BME280;67944;0.000;0.000;2023-07-20T09:40:20;100546.94;;;27.47;33.20
78625;BME280;67944;0.000;0.000;2023-07-20T09:42:46;100547.56;;;27.49;33.09
78625;BME280;67944;0.000;0.000;2023-07-20T09:45:12;100544.41;;;27.52;32.90
78625;BME280;67944;0.000;0.000;2023-07-20T09:47:39;100545.22;;;27.53;32.71
78625;BME280;67944;0.000;0.000;2023-07-20T09:50:06;100548.50;;;27.55;32.78
78625;BME280;67944;0.000;0.000;2023-07-20T09:52:38;100546.63;;;27.55;32.96
78625;BME280;67944;0.000;0.000;2023-07-20T09:55:05;100541.06;;;27.57;32.74
78625;BME280;67944;0.000;0.000;2023-07-20T09:57:33;100543.53;;;27.58;32.35
78625;BME280;67944;0.000;0.000;2023-07-20T09:59:58;100541.69;;;27.59;32.62
78625;BME280;67944;0.000;0.000;2023-07-20T10:02:33;100545.19;;;27.59;32.20
78625;BME280;67944;0.000;0.000;2023-07-20T10:05:02;100544.78;;;27.56;32.02
78625;BME280;67944;0.000;0.000;2023-07-20T10:07:30;100538.59;;;27.55;32.50
78625;BME280;67944;0.000;0.000;2023-07-20T10:09:59;100542.09;;;27.56;32.00
78625;BME280;67944;0.000;0.000;2023-07-20T10:12:27;100542.72;;;27.58;32.36
78625;BME280;67944;0.000;0.000;2023-07-20T10:15:25;100534.25;;;27.61;31.91
78625;BME280;67944;0.000;0.000;2023-07-20T10:18:09;100524.50;;;27.67;32.21
78625;BME280;67944;0.000;0.000;2023-07-20T10:20:39;100528.38;;;27.71;31.79
78625;BME280;67944;0.000;0.000;2023-07-20T10:23:06;100531.41;;;27.74;31.91
78625;BME280;67944;0.000;0.000;2023-07-20T10:25:33;100524.56;;;27.78;32.01
78625;BME280;67944;0.000;0.000;2023-07-20T10:28:04;100517.56;;;27.77;31.76
78625;BME280;67944;0.000;0.000;2023-07-20T10:30:30;100513.47;;;27.75;31.56
78625;BME280;67944;0.000;0.000;2023-07-20T10:32:57;100511.25;;;27.72;31.60
78625;BME280;67944;0.000;0.000;2023-07-20T10:35:22;100515.56;;;27.73;31.12
78625;BME280;67944;0.000;0.000;2023-07-20T10:38:07;100504.41;;;27.76;31.68
78625;BME280;67944;0.000;0.000;2023-07-20T10:40:38;100507.44;;;27.79;31.40
78625;BME280;67944;0.000;0.000;2023-07-20T10:43:09;100497.13;;;27.83;31.43
78625;BME280;67944;0.000;0.000;2023-07-20T10:45:45;100500.38;;;27.85;31.27
78625;BME280;67944;0.000;0.000;2023-07-20T10:48:24;100497.25;;;27.88;31.14
78625;BME280;67944;0.000;0.000;2023-07-20T10:51:19;100483.19;;;27.92;30.78
78625;BME280;67944;0.000;0.000;2023-07-20T10:53:48;100486.22;;;27.96;31.02
78625;BME280;67944;0.000;0.000;2023-07-20T10:56:26;100478.75;;;27.98;30.51
78625;BME280;67944;0.000;0.000;2023-07-20T10:58:57;100484.13;;;27.98;30.41
78625;BME280;67944;0.000;0.000;2023-07-20T11:01:28;100473.19;;;27.99;30.32
78625;BME280;67944;0.000;0.000;2023-07-20T11:03:57;100479.13;;;28.02;30.25
78625;BME280;67944;0.000;0.000;2023-07-20T11:08:55;100468.31;;;28.08;30.13
78625;BME280;67944;0.000;0.000;2023-07-20T11:11:25;100477.75;;;28.11;30.13
78625;BME280;67944;0.000;0.000;2023-07-20T11:16:37;100470.31;;;28.13;29.68
78625;BME280;67944;0.000;0.000;2023-07-20T11:19:04;100471.13;;;28.13;29.58
78625;BME280;67944;0.000;0.000;2023-07-20T11:21:38;100463.09;;;28.13;29.34
78625;BME280;67944;0.000;0.000;2023-07-20T11:24:05;100464.75;;;28.14;29.54
78625;BME280;67944;0.000;0.000;2023-07-20T11:26:39;100466.34;;;28.15;29.49
78625;BME280;67944;0.000;0.000;2023-07-20T11:29:05;100462.38;;;28.18;29.46
78625;BME280;67944;0.000;0.000;2023-07-20T11:31:30;100462.16;;;28.19;29.30
78625;BME280;67944;0.000;0.000;2023-07-20T11:34:00;100467.31;;;28.21;29.46
78625;BME280;67944;0.000;0.000;2023-07-20T11:36:25;100465.69;;;28.20;29.21
78625;BME280;67944;0.000;0.000;2023-07-20T11:38:51;100461.34;;;28.19;29.00
78625;BME280;67944;0.000;0.000;2023-07-20T11:41:16;100469.84;;;28.16;29.21
78625;BME280;67944;0.000;0.000;2023-07-20T11:43:42;100469.84;;;28.16;29.17
78625;BME280;67944;0.000;0.000;2023-07-20T11:46:10;100463.66;;;28.15;29.24
78625;BME280;67944;0.000;0.000;2023-07-20T11:48:36;100464.47;;;28.16;29.17
78625;BME280;67944;0.000;0.000;2023-07-20T11:51:02;100460.44;;;28.13;29.03
78625;BME280;67944;0.000;0.000;2023-07-20T11:53:27;100456.94;;;28.13;29.27
78625;BME280;67944;0.000;0.000;2023-07-20T11:55:54;100462.06;;;28.14;29.15
78625;BME280;67944;0.000;0.000;2023-07-20T11:58:20;100459.13;;;28.16;29.26
78625;BME280;67944;0.000;0.000;2023-07-20T12:00:47;100456.59;;;28.21;29.11
78625;BME280;67944;0.000;0.000;2023-07-20T12:03:12;100462.31;;;28.24;28.90
78625;BME280;67944;0.000;0.000;2023-07-20T12:05:39;100444.97;;;28.27;29.04
78625;BME280;67944;0.000;0.000;2023-07-20T12:08:04;100448.25;;;28.29;29.21
78625;BME280;67944;0.000;0.000;2023-07-20T12:10:30;100448.59;;;28.33;29.06
78625;BME280;67944;0.000;0.000;2023-07-20T12:13:01;100444.66;;;28.35;28.78
78625;BME280;67944;0.000;0.000;2023-07-20T12:15:29;100433.66;;;28.37;29.08
78625;BME280;67944;0.000;0.000;2023-07-20T12:17:56;100429.94;;;28.38;28.82
78625;BME280;67944;0.000;0.000;2023-07-20T12:20:35;100435.06;;;28.39;28.99
78625;BME280;67944;0.000;0.000;2023-07-20T12:23:09;100421.44;;;28.41;29.08
78625;BME280;67944;0.000;0.000;2023-07-20T12:28:06;100423.66;;;28.44;29.04
78625;BME280;67944;0.000;0.000;2023-07-20T12:30:32;100431.25;;;28.47;29.12
78625;BME280;67944;0.000;0.000;2023-07-20T12:32:57;100428.09;;;28.50;29.20
78625;BME280;67944;0.000;0.000;2023-07-20T12:35:22;100427.63;;;28.53;29.09
78625;BME280;67944;0.000;0.000;2023-07-20T12:37:48;100427.41;;;28.54;29.34
78625;BME280;67944;0.000;0.000;2023-07-20T12:40:14;100422.41;;;28.58;29.06
78625;BME280;67944;0.000;0.000;2023-07-20T12:42:39;100428.31;;;28.60;29.01
78625;BME280;67944;0.000;0.000;2023-07-20T12:45:05;100421.91;;;28.61;28.81
78625;BME280;67944;0.000;0.000;2023-07-20T12:47:31;100423.75;;;28.60;28.96
78625;BME280;67944;0.000;0.000;2023-07-20T12:49:56;100412.22;;;28.60;28.73
78625;BME280;67944;0.000;0.000;2023-07-20T12:52:22;100419.44;;;28.59;28.73
78625;BME280;67944;0.000;0.000;2023-07-20T12:54:47;100415.97;;;28.59;28.82
78625;BME280;67944;0.000;0.000;2023-07-20T12:57:13;100408.19;;;28.57;28.91
78625;BME280;67944;0.000;0.000;2023-07-20T12:59:38;100414.59;;;28.56;28.72
78625;BME280;67944;0.000;0.000;2023-07-20T13:02:04;100406.31;;;28.58;28.74
78625;BME280;67944;0.000;0.000;2023-07-20T13:04:29;100398.84;;;28.60;28.73
78625;BME280;67944;0.000;0.000;2023-07-20T13:06:55;100404.78;;;28.62;28.58
78625;BME280;67944;0.000;0.000;2023-07-20T13:09:20;100398.59;;;28.61;28.97
78625;BME280;67944;0.000;0.000;2023-07-20T13:11:46;100398.38;;;28.63;28.77